createdAt,value
2017-05-28T00:00:37.757Z,13.00
2017-05-28T00:03:04.758Z,13.10
2017-05-28T00:05:33.005Z,13.00
2017-05-28T00:08:00.005Z,12.80
2017-05-28T00:10:26.261Z,12.80
2017-05-28T00:12:53.613Z,12.70
2017-05-28T00:15:20.618Z,12.50
2017-05-28T00:17:46.877Z,12.50
2017-05-28T00:20:14.985Z,12.30
2017-05-28T00:22:41.989Z,12.40
2017-05-28T00:25:09.858Z,12.30
2017-05-28T00:27:37.837Z,12.30
2017-05-28T00:30:04.841Z,12.00
2017-05-28T00:32:31.876Z,12.00
2017-05-28T00:34:59.192Z,12.00
2017-05-28T00:37:26.187Z,12.10
2017-05-28T00:39:53.187Z,12.00
2017-05-28T00:42:20.543Z,12.00
2017-05-28T00:44:48.349Z,12.10
2017-05-28T00:47:15.351Z,12.00
2017-05-28T00:49:42.700Z,12.00
2017-05-28T00:52:09.689Z,12.00
2017-05-28T00:54:36.694Z,12.10
2017-05-28T00:57:04.043Z,12.10
2017-05-28T00:59:31.042Z,11.90
2017-05-28T01:01:58.602Z,11.70
2017-05-28T01:04:26.004Z,11.70
2017-05-28T01:06:53.038Z,11.80
2017-05-28T01:09:20.041Z,11.80
2017-05-28T01:11:48.277Z,11.80
2017-05-28T01:14:16.081Z,11.90
2017-05-28T01:16:43.826Z,12.00
2017-05-28T01:19:13.031Z,11.80
2017-05-28T01:21:40.050Z,11.80
2017-05-28T01:24:07.473Z,11.80
2017-05-28T01:26:34.845Z,11.60
2017-05-28T01:29:01.849Z,11.50
2017-05-28T01:31:28.861Z,11.40
2017-05-28T01:33:56.298Z,11.20
2017-05-28T01:36:23.326Z,11.20
2017-05-28T01:38:50.333Z,11.20
2017-05-28T01:41:17.747Z,11.20
2017-05-28T01:43:44.809Z,11.10
2017-05-28T01:46:11.843Z,11.10
2017-05-28T01:48:40.049Z,11.10
2017-05-28T01:51:07.918Z,10.90
2017-05-28T01:53:34.927Z,10.90
2017-05-28T01:56:02.286Z,10.80
2017-05-28T01:58:31.095Z,10.70
2017-05-28T02:00:58.106Z,10.50
2017-05-28T02:03:25.469Z,10.60
2017-05-28T02:05:53.002Z,10.60
2017-05-28T02:08:20.652Z,10.70
2017-05-28T02:10:47.701Z,10.60
2017-05-28T02:13:17.585Z,10.80
2017-05-28T02:15:44.586Z,10.80
2017-05-28T02:18:12.780Z,10.70
2017-05-28T02:20:40.441Z,10.60
2017-05-28T02:23:07.432Z,10.60
2017-05-28T02:25:34.726Z,10.40
2017-05-28T02:28:02.293Z,10.40
2017-05-28T02:30:29.289Z,10.30
2017-05-28T02:32:56.685Z,10.30
2017-05-28T02:35:23.681Z,10.30
2017-05-28T02:37:50.669Z,10.30
2017-05-28T02:40:18.033Z,10.40
2017-05-28T02:42:45.053Z,10.70
2017-05-28T02:45:12.058Z,10.90
2017-05-28T02:47:40.307Z,10.90
2017-05-28T02:50:07.319Z,10.90
2017-05-28T02:52:34.843Z,10.90
2017-05-28T02:55:02.158Z,11.00
2017-05-28T02:57:29.153Z,11.00
2017-05-28T02:59:56.155Z,10.80
2017-05-28T03:02:24.526Z,10.50
2017-05-28T03:04:55.382Z,10.30
2017-05-28T03:07:23.042Z,10.30
2017-05-28T03:09:51.113Z,10.30
2017-05-28T03:12:18.114Z,10.40
2017-05-28T03:14:45.993Z,10.30
2017-05-28T03:17:13.361Z,10.10
2017-05-28T03:19:40.365Z,10.10
2017-05-28T03:22:08.362Z,10.00
2017-05-28T03:24:35.735Z,10.00
2017-05-28T03:27:02.818Z,10.00
2017-05-28T03:29:29.817Z,10.00
2017-05-28T03:31:57.966Z,10.10
2017-05-28T03:34:24.965Z,10.10
2017-05-28T03:36:51.965Z,10.20
2017-05-28T03:39:19.341Z,10.10
2017-05-28T03:41:46.334Z,10.10
2017-05-28T03:44:13.342Z,10.10
2017-05-28T03:46:40.689Z,10.10
2017-05-28T03:49:08.717Z,10.10
2017-05-28T03:51:35.722Z,10.20
2017-05-28T03:54:03.058Z,10.20
2017-05-28T03:56:31.093Z,10.30
2017-05-28T03:58:58.114Z,10.20
2017-05-28T04:01:25.425Z,10.20
2017-05-28T04:03:52.421Z,10.30
2017-05-28T04:06:19.442Z,10.30
2017-05-28T04:08:47.666Z,10.40
2017-05-28T04:11:14.671Z,10.40
2017-05-28T04:13:41.671Z,10.50
2017-05-28T04:16:08.997Z,10.40
2017-05-28T04:18:35.993Z,10.40
2017-05-28T04:21:02.998Z,10.40
2017-05-28T04:23:31.246Z,10.40
2017-05-28T04:25:58.241Z,10.40
2017-05-28T04:28:25.250Z,10.50
2017-05-28T04:30:53.376Z,10.60
2017-05-28T04:33:20.386Z,10.70
2017-05-28T04:35:47.481Z,10.80
2017-05-28T04:38:15.596Z,10.90
2017-05-28T04:40:42.602Z,11.10
2017-05-28T04:43:09.603Z,11.20
2017-05-28T04:45:37.720Z,11.40
2017-05-28T04:48:04.726Z,11.60
2017-05-28T04:50:31.742Z,11.80
2017-05-28T04:52:59.055Z,11.90
2017-05-28T04:55:26.047Z,12.00
2017-05-28T04:57:53.052Z,12.00
2017-05-28T05:00:21.322Z,12.10
2017-05-28T05:02:48.318Z,12.30
2017-05-28T05:05:15.326Z,12.30
2017-05-28T05:07:42.658Z,12.40
2017-05-28T05:10:09.658Z,12.60
2017-05-28T05:12:36.655Z,12.80
2017-05-28T05:15:03.997Z,13.00
2017-05-28T05:17:30.994Z,13.10
2017-05-28T05:19:57.982Z,13.20
2017-05-28T05:22:26.230Z,13.30
2017-05-28T05:24:53.224Z,13.40
2017-05-28T05:27:20.219Z,13.40
2017-05-28T05:29:47.613Z,13.30
2017-05-28T05:32:14.641Z,13.30
2017-05-28T05:34:41.665Z,13.50
2017-05-28T05:37:09.073Z,13.60
2017-05-28T05:39:36.557Z,13.80
2017-05-28T05:42:03.563Z,14.00
2017-05-28T05:44:31.606Z,14.10
2017-05-28T05:46:58.601Z,14.20
2017-05-28T05:49:25.615Z,14.20
2017-05-28T05:51:53.860Z,14.40
2017-05-28T05:54:21.909Z,14.60
2017-05-28T05:56:48.910Z,14.90
2017-05-28T05:59:17.106Z,15.00
2017-05-28T06:01:44.109Z,15.30
2017-05-28T06:04:11.130Z,15.50
2017-05-28T06:06:38.439Z,15.70
2017-05-28T06:09:05.433Z,15.90
2017-05-28T06:11:32.424Z,16.10
2017-05-28T06:13:59.710Z,16.30
2017-05-28T06:16:26.715Z,16.50
2017-05-28T06:18:53.713Z,16.70
2017-05-28T06:21:21.022Z,16.80
2017-05-28T06:23:48.048Z,16.90
2017-05-28T06:26:15.069Z,17.10
2017-05-28T06:28:43.317Z,17.30
2017-05-28T06:31:10.317Z,17.50
2017-05-28T06:33:37.315Z,17.80
2017-05-28T06:36:05.375Z,17.90
2017-05-28T06:38:32.385Z,18.00
2017-05-28T06:40:59.378Z,18.20
2017-05-28T06:43:27.646Z,18.40
2017-05-28T06:45:54.642Z,18.50
2017-05-28T06:48:21.657Z,18.60
2017-05-28T06:50:49.798Z,18.70
2017-05-28T06:53:16.787Z,18.90
2017-05-28T06:55:43.790Z,19.20
2017-05-28T06:58:12.089Z,19.30
2017-05-28T07:00:39.106Z,19.40
2017-05-28T07:03:06.105Z,19.50
2017-05-28T07:05:34.254Z,19.70
2017-05-28T07:08:01.259Z,19.70
2017-05-28T07:10:29.279Z,20.00
2017-05-28T07:12:56.578Z,20.30
2017-05-28T07:15:23.586Z,20.40
2017-05-28T07:17:50.588Z,20.60
2017-05-28T07:20:17.849Z,20.70
2017-05-28T07:22:44.841Z,20.80
2017-05-28T07:25:11.837Z,20.80
2017-05-28T07:27:39.287Z,21.00
2017-05-28T07:30:06.297Z,21.20
2017-05-28T07:32:33.393Z,21.30
2017-05-28T07:35:00.698Z,21.50
2017-05-28T07:37:27.711Z,21.60
2017-05-28T07:39:54.721Z,21.70
2017-05-28T07:42:22.932Z,21.80
2017-05-28T07:44:49.946Z,21.90
2017-05-28T07:47:16.937Z,22.20
2017-05-28T07:49:44.242Z,22.20
2017-05-28T07:52:11.267Z,22.20
2017-05-28T07:54:38.277Z,22.40
2017-05-28T07:57:05.578Z,22.60
2017-05-28T07:59:32.583Z,22.70
2017-05-28T08:01:59.594Z,22.90
2017-05-28T08:04:26.930Z,23.00
2017-05-28T08:06:53.941Z,22.80
2017-05-28T08:09:20.940Z,22.80
2017-05-28T08:11:48.265Z,23.10
2017-05-28T08:14:15.268Z,23.30
2017-05-28T08:16:42.277Z,23.10
2017-05-28T08:19:09.614Z,23.20
2017-05-28T08:21:36.609Z,23.10
2017-05-28T08:24:03.606Z,23.20
2017-05-28T08:26:30.974Z,23.60
2017-05-28T08:28:57.982Z,23.80
2017-05-28T08:31:24.993Z,23.80
2017-05-28T08:33:52.307Z,24.10
2017-05-28T08:36:19.327Z,24.00
2017-05-28T08:38:46.326Z,23.60
2017-05-28T08:41:13.654Z,23.60
2017-05-28T08:43:40.670Z,24.00
2017-05-28T08:46:07.681Z,24.50
2017-05-28T08:48:35.841Z,24.50
2017-05-28T08:51:02.846Z,24.10
2017-05-28T08:53:29.851Z,24.50
2017-05-28T08:55:58.061Z,24.30
2017-05-28T08:58:25.063Z,24.40
2017-05-28T09:00:52.078Z,24.50
2017-05-28T09:03:20.293Z,24.80
2017-05-28T09:05:48.309Z,24.60
2017-05-28T09:08:15.911Z,24.80
2017-05-28T09:10:58.381Z,24.70
2017-05-28T09:13:25.590Z,24.90
2017-05-28T09:15:52.001Z,24.90
2017-05-28T09:18:19.469Z,25.20
2017-05-28T09:20:46.647Z,25.20
2017-05-28T09:23:14.925Z,25.50
2017-05-28T09:25:42.461Z,25.50
2017-05-28T09:28:09.560Z,25.40
2017-05-28T09:30:36.601Z,25.10
2017-05-28T09:33:03.954Z,25.10
2017-05-28T09:35:30.958Z,25.10
2017-05-28T09:37:57.957Z,25.10
2017-05-28T09:40:25.302Z,25.40
2017-05-28T09:42:52.302Z,25.30
2017-05-28T09:45:19.309Z,25.30
2017-05-28T09:47:46.650Z,25.70
2017-05-28T09:50:13.637Z,26.10
2017-05-28T09:52:40.636Z,26.10
2017-05-28T09:55:08.970Z,25.60
2017-05-28T09:57:36.986Z,25.70
2017-05-28T10:00:03.986Z,26.10
2017-05-28T10:02:31.282Z,26.50
2017-05-28T10:04:58.283Z,26.40
2017-05-28T10:07:25.284Z,26.70
2017-05-28T10:09:52.594Z,26.80
2017-05-28T10:12:19.595Z,26.00
2017-05-28T10:14:46.595Z,26.60
2017-05-28T10:17:13.968Z,26.90
2017-05-28T10:19:41.100Z,27.00
2017-05-28T10:22:09.113Z,26.60
2017-05-28T10:24:37.384Z,26.80
2017-05-28T10:27:04.381Z,26.90
2017-05-28T10:29:31.385Z,26.40
2017-05-28T10:31:58.714Z,26.80
2017-05-28T10:34:25.779Z,26.90
2017-05-28T10:36:52.798Z,26.60
2017-05-28T10:39:20.897Z,27.20
2017-05-28T10:41:48.040Z,27.30
2017-05-28T10:44:15.071Z,27.20
2017-05-28T10:46:42.424Z,27.50
2017-05-28T10:49:09.423Z,27.60
2017-05-28T10:51:36.418Z,27.60
2017-05-28T10:54:03.775Z,27.60
2017-05-28T10:56:30.769Z,27.40
2017-05-28T10:58:57.778Z,27.80
2017-05-28T11:01:25.128Z,27.80
2017-05-28T11:03:52.130Z,27.70
2017-05-28T11:06:19.130Z,27.50
2017-05-28T11:08:46.458Z,27.40
2017-05-28T11:11:13.461Z,27.40
2017-05-28T11:13:40.602Z,27.70
2017-05-28T11:16:08.667Z,27.90
2017-05-28T11:18:36.669Z,27.40
2017-05-28T11:21:04.510Z,27.20
2017-05-28T11:23:31.817Z,27.40
2017-05-28T11:25:58.827Z,27.70
2017-05-28T11:28:25.829Z,27.50
2017-05-28T11:30:53.118Z,27.60
2017-05-28T11:33:20.121Z,27.50
2017-05-28T11:35:47.133Z,27.30
2017-05-28T11:38:14.425Z,27.40
2017-05-28T11:40:41.426Z,27.80
2017-05-28T11:43:09.433Z,27.50
2017-05-28T11:45:36.725Z,27.20
2017-05-28T11:48:03.742Z,27.90
2017-05-28T11:50:30.746Z,28.20
2017-05-28T11:52:58.118Z,28.10
2017-05-28T11:55:25.134Z,28.30
2017-05-28T11:57:52.135Z,28.40
2017-05-28T12:00:19.465Z,28.40
2017-05-28T12:02:46.473Z,28.00
2017-05-28T12:05:13.470Z,27.50
2017-05-28T12:07:40.817Z,27.70
2017-05-28T12:10:07.831Z,28.30
2017-05-28T12:12:34.822Z,28.60
2017-05-28T12:15:02.142Z,28.90
2017-05-28T12:17:29.153Z,28.70
2017-05-28T12:19:56.164Z,28.40
2017-05-28T12:22:23.467Z,28.60
2017-05-28T12:24:50.461Z,29.20
2017-05-28T12:27:17.466Z,30.30
2017-05-28T12:29:44.794Z,31.50
2017-05-28T12:32:11.798Z,30.70
2017-05-28T12:34:38.798Z,32.20
2017-05-28T12:37:06.954Z,33.80
2017-05-28T12:39:33.954Z,34.00
2017-05-28T12:42:00.951Z,34.40
2017-05-28T12:44:28.305Z,35.90
2017-05-28T12:46:55.313Z,35.70
2017-05-28T12:49:22.321Z,35.80
2017-05-28T12:51:49.613Z,35.70
2017-05-28T12:54:16.613Z,35.00
2017-05-28T12:56:43.616Z,36.60
2017-05-28T12:59:10.905Z,36.10
2017-05-28T13:01:37.930Z,35.60
2017-05-28T13:04:04.954Z,36.00
2017-05-28T13:06:33.190Z,34.80
2017-05-28T13:09:00.194Z,35.50
2017-05-28T13:11:27.197Z,38.00
2017-05-28T13:13:55.393Z,37.70
2017-05-28T13:16:22.397Z,37.70
2017-05-28T13:18:50.445Z,36.90
2017-05-28T13:21:17.732Z,35.30
2017-05-28T13:23:44.765Z,36.10
2017-05-28T13:26:11.769Z,35.40
2017-05-28T13:28:39.093Z,37.00
2017-05-28T13:31:06.097Z,38.30
2017-05-28T13:33:33.097Z,37.30
2017-05-28T13:36:01.467Z,37.90
2017-05-28T13:38:28.475Z,35.50
2017-05-28T13:40:55.473Z,35.70
2017-05-28T13:43:22.805Z,35.70
2017-05-28T13:45:49.810Z,36.30
2017-05-28T13:48:16.818Z,38.50
2017-05-28T13:50:45.186Z,36.40
2017-05-28T13:53:13.226Z,36.30
2017-05-28T13:55:40.224Z,37.80
2017-05-28T13:58:08.669Z,39.10
2017-05-28T14:00:35.684Z,37.80
2017-05-28T14:03:02.700Z,37.50
2017-05-28T14:05:30.020Z,38.20
2017-05-28T14:07:58.049Z,39.10
2017-05-28T14:10:25.059Z,41.40
2017-05-28T14:12:52.392Z,40.80
2017-05-28T14:15:19.398Z,40.40
2017-05-28T14:17:45.649Z,40.40
2017-05-28T14:20:13.649Z,39.20
2017-05-28T14:22:40.654Z,39.50
2017-05-28T14:25:07.658Z,38.80
2017-05-28T14:27:34.974Z,37.80
2017-05-28T14:30:01.982Z,38.50
2017-05-28T14:32:28.985Z,37.80
2017-05-28T14:34:56.318Z,40.40
2017-05-28T14:37:23.343Z,39.00
2017-05-28T14:39:50.362Z,39.60
2017-05-28T14:42:17.706Z,39.60
2017-05-28T14:44:44.705Z,39.20
2017-05-28T14:47:11.745Z,38.30
2017-05-28T14:49:39.801Z,37.50
2017-05-28T14:52:06.065Z,37.60
2017-05-28T14:54:34.110Z,40.00
2017-05-28T14:57:01.485Z,40.40
2017-05-28T14:59:28.497Z,40.30
2017-05-28T15:01:55.493Z,39.80
2017-05-28T15:04:22.833Z,39.40
2017-05-28T15:06:49.837Z,39.10
2017-05-28T15:09:16.839Z,37.70
2017-05-28T15:11:45.051Z,37.70
2017-05-28T15:14:11.322Z,37.70
2017-05-28T15:16:38.325Z,39.40
2017-05-28T15:19:05.626Z,39.50
2017-05-28T15:21:33.652Z,38.90
2017-05-28T15:24:00.661Z,39.20
2017-05-28T15:26:27.990Z,37.90
2017-05-28T15:28:55.044Z,38.10
2017-05-28T15:31:23.102Z,37.50
2017-05-28T15:33:51.262Z,36.90
2017-05-28T15:36:18.268Z,37.60
2017-05-28T15:38:45.276Z,39.50
2017-05-28T15:41:12.627Z,39.10
2017-05-28T15:43:39.629Z,39.80
2017-05-28T15:46:06.645Z,40.70
2017-05-28T15:48:33.965Z,39.60
2017-05-28T15:51:01.023Z,38.50
2017-05-28T15:53:28.026Z,39.20
2017-05-28T15:55:55.309Z,40.10
2017-05-28T15:58:22.318Z,40.90
2017-05-28T16:00:49.326Z,42.10
2017-05-28T16:03:17.454Z,42.40
2017-05-28T16:05:43.726Z,42.30
2017-05-28T16:08:10.729Z,41.50
2017-05-28T16:10:38.133Z,39.00
2017-05-28T16:13:05.127Z,39.50
2017-05-28T16:15:32.133Z,40.00
2017-05-28T16:18:00.478Z,39.00
2017-05-28T16:20:28.521Z,38.70
2017-05-28T16:22:55.525Z,39.50
2017-05-28T16:25:22.849Z,39.90
2017-05-28T16:27:50.889Z,40.30
2017-05-28T16:30:17.902Z,39.80
2017-05-28T16:32:45.198Z,39.20
2017-05-28T16:35:12.202Z,40.20
2017-05-28T16:37:39.217Z,39.80
2017-05-28T16:40:06.567Z,39.10
2017-05-28T16:42:33.573Z,38.30
2017-05-28T16:45:00.589Z,38.60
2017-05-28T16:47:27.909Z,38.60
2017-05-28T16:49:54.909Z,39.00
2017-05-28T16:52:21.918Z,37.50
2017-05-28T16:54:49.266Z,36.70
2017-05-28T16:57:16.274Z,35.90
2017-05-28T16:59:43.298Z,37.00
2017-05-28T17:02:11.430Z,36.70
2017-05-28T17:04:38.441Z,34.20
2017-05-28T17:07:05.443Z,31.70
2017-05-28T17:09:33.485Z,29.80
2017-05-28T17:12:00.494Z,28.80
2017-05-28T17:14:27.493Z,28.80
2017-05-28T17:16:54.834Z,27.90
2017-05-28T17:19:21.846Z,27.20
2017-05-28T17:21:49.861Z,27.00
2017-05-28T17:24:17.322Z,26.80
2017-05-28T17:26:43.589Z,26.70
2017-05-28T17:29:10.619Z,27.30
2017-05-28T17:31:38.083Z,26.60
2017-05-28T17:34:05.090Z,26.20
2017-05-28T17:36:31.370Z,26.10
2017-05-28T17:38:58.766Z,25.60
2017-05-28T17:41:25.769Z,25.50
2017-05-28T17:43:52.771Z,25.40
2017-05-28T17:46:19.381Z,25.30
2017-05-28T17:48:46.386Z,25.10
2017-05-28T17:51:13.385Z,24.90
2017-05-28T17:53:40.003Z,24.80
2017-05-28T17:56:06.266Z,24.70
2017-05-28T17:58:33.273Z,23.90
2017-05-28T18:01:00.554Z,23.60
2017-05-28T18:03:27.549Z,23.10
2017-05-28T18:05:54.554Z,22.70
2017-05-28T18:08:21.890Z,22.70
2017-05-28T18:10:48.889Z,22.60
2017-05-28T18:13:15.150Z,22.60
2017-05-28T18:15:43.453Z,22.20
2017-05-28T18:18:10.465Z,22.00
2017-05-28T18:20:37.458Z,22.00
2017-05-28T18:23:04.774Z,21.70
2017-05-28T18:25:31.781Z,21.50
2017-05-28T18:27:58.809Z,21.30
2017-05-28T18:30:26.141Z,21.20
2017-05-28T18:32:53.147Z,20.90
2017-05-28T18:35:21.149Z,20.60
2017-05-28T18:37:49.290Z,20.50
2017-05-28T18:40:16.310Z,20.30
2017-05-28T18:42:43.318Z,20.10
2017-05-28T18:45:10.635Z,19.90
2017-05-28T18:47:37.642Z,19.60
2017-05-28T18:50:03.906Z,19.50
2017-05-28T18:52:31.297Z,19.30
2017-05-28T18:54:58.315Z,19.30
2017-05-28T18:57:25.324Z,19.10
2017-05-28T18:59:52.789Z,19.10
2017-05-28T19:02:19.906Z,18.90
2017-05-28T19:04:46.237Z,18.90
2017-05-28T19:07:14.357Z,18.80
2017-05-28T19:09:41.387Z,18.60
2017-05-28T19:12:08.450Z,18.60
2017-05-28T19:14:35.727Z,18.40
2017-05-28T19:17:03.054Z,18.30
2017-05-28T19:19:30.094Z,18.30
2017-05-28T19:21:57.391Z,18.20
2017-05-28T19:24:24.395Z,18.10
2017-05-28T19:26:51.400Z,17.90
2017-05-28T19:29:18.678Z,17.70
2017-05-28T19:31:45.689Z,17.60
2017-05-28T19:34:14.017Z,17.60
2017-05-28T19:36:41.421Z,17.70
2017-05-28T19:41:45.838Z,17.50
2017-05-28T19:44:12.857Z,17.50
2017-05-28T19:46:39.981Z,17.50
2017-05-28T19:49:07.397Z,17.40
2017-05-28T19:51:35.273Z,17.20
2017-05-28T19:54:02.351Z,17.10
2017-05-28T19:56:29.777Z,17.00
2017-05-28T19:58:56.773Z,17.10
2017-05-28T20:01:23.778Z,17.00
2017-05-28T20:03:52.145Z,17.10
2017-05-28T20:06:19.321Z,17.00
2017-05-28T20:08:46.326Z,16.90
2017-05-28T20:11:14.557Z,16.90
2017-05-28T20:13:41.810Z,16.80
2017-05-28T20:16:09.873Z,16.70
2017-05-28T20:18:37.924Z,16.60
2017-05-28T20:21:04.937Z,16.70
2017-05-28T20:23:31.950Z,16.60
2017-05-28T20:26:00.173Z,16.70
2017-05-28T20:28:27.426Z,16.70
2017-05-28T20:30:55.475Z,16.70
2017-05-28T20:33:22.031Z,16.70
2017-05-28T20:35:49.026Z,16.60
2017-05-28T20:38:16.038Z,16.50
2017-05-28T20:40:44.317Z,16.50
2017-05-28T20:43:11.317Z,16.50
2017-05-28T20:45:38.325Z,16.50
2017-05-28T20:48:05.638Z,16.50
2017-05-28T20:50:33.662Z,16.40
2017-05-28T20:53:00.654Z,16.30
2017-05-28T20:55:28.003Z,16.20
2017-05-28T20:57:55.026Z,16.00
2017-05-28T21:00:23.041Z,15.90
2017-05-28T21:02:51.106Z,16.10
2017-05-28T21:05:18.102Z,16.00
2017-05-28T21:07:45.118Z,16.10
2017-05-28T21:10:13.327Z,16.10
2017-05-28T21:12:40.329Z,16.00
2017-05-28T21:15:08.338Z,16.00
2017-05-28T21:17:36.453Z,16.00
2017-05-28T21:20:03.464Z,16.00
2017-05-28T21:22:30.453Z,15.90
2017-05-28T21:24:57.789Z,15.90
2017-05-28T21:27:24.059Z,15.80
2017-05-28T21:29:51.058Z,16.00
2017-05-28T21:32:18.419Z,16.10
2017-05-28T21:34:45.417Z,16.00
2017-05-28T21:37:12.421Z,16.10
2017-05-28T21:39:39.766Z,15.90
2017-05-28T21:42:06.769Z,16.00
2017-05-28T21:44:33.777Z,16.00
2017-05-28T21:47:01.535Z,15.90
2017-05-28T21:49:28.585Z,15.80
2017-05-28T21:51:55.602Z,15.80
2017-05-28T21:54:22.969Z,15.80
2017-05-28T21:56:49.978Z,15.90
2017-05-28T21:59:16.987Z,15.80
2017-05-28T22:01:44.313Z,15.70
2017-05-28T22:04:11.322Z,15.60
2017-05-28T22:06:38.331Z,15.60
2017-05-28T22:09:05.658Z,15.40
2017-05-28T22:11:32.661Z,15.30
2017-05-28T22:13:59.661Z,15.40
2017-05-28T22:16:27.861Z,15.30
2017-05-28T22:18:54.882Z,15.30
2017-05-28T22:21:21.888Z,15.30
2017-05-28T22:23:50.090Z,15.40
2017-05-28T22:26:17.098Z,15.30
2017-05-28T22:28:44.105Z,15.10
2017-05-28T22:31:12.294Z,14.90
2017-05-28T22:33:39.289Z,14.80
2017-05-28T22:36:06.289Z,14.70
2017-05-28T22:38:33.709Z,14.60
2017-05-28T22:41:00.705Z,14.70
2017-05-28T22:43:27.717Z,14.70
2017-05-28T22:45:56.069Z,14.70
2017-05-28T22:48:23.075Z,14.70
2017-05-28T22:50:50.073Z,14.70
2017-05-28T22:53:17.410Z,14.70
2017-05-28T22:55:44.413Z,14.60
2017-05-28T22:58:11.414Z,14.60
2017-05-28T23:00:39.550Z,14.60
2017-05-28T23:03:06.558Z,14.60
2017-05-28T23:05:33.557Z,14.70
2017-05-28T23:08:00.926Z,14.70
2017-05-28T23:10:27.930Z,14.60
2017-05-28T23:12:54.930Z,14.60
2017-05-28T23:15:22.289Z,14.60
2017-05-28T23:17:49.326Z,14.70
2017-05-28T23:20:16.333Z,14.80
2017-05-28T23:22:43.683Z,14.70
2017-05-28T23:25:10.681Z,14.70
2017-05-28T23:27:37.685Z,14.70
2017-05-28T23:30:04.246Z,14.70
2017-05-28T23:32:31.248Z,14.60
2017-05-28T23:34:57.573Z,14.60
2017-05-28T23:37:25.706Z,14.70
2017-05-28T23:39:52.714Z,14.80
2017-05-28T23:42:20.742Z,14.80
2017-05-28T23:44:48.174Z,15.00
2017-05-28T23:47:15.178Z,14.90
2017-05-28T23:49:41.891Z,14.90
2017-05-28T23:52:10.129Z,15.00
2017-05-28T23:54:37.127Z,15.00
2017-05-28T23:57:04.121Z,15.00
2017-05-28T23:59:31.469Z,14.90
